Time;durP1;ratioP1;P1;durP2;ratioP2;P2;SDS_P1;SDS_P2;PMS_P1;PMS_P2;Temp;Humidity;BMP_temperature;BMP_pressure;BME280_temperature;BME280_humidity;BME280_pressure;Samples;Min_cycle;Max_cycle;Signal;HPM_P1;HPM_P2
2022/07/11 00:02:21;;;;;;;16.98;16.27;;;;;;;-141.02;100.00;55844.97;5072506;28;20198;-73
2022/07/11 00:04:48;;;;;;;16.85;16.15;;;;;;;-141.02;100.00;55844.97;5072490;28;20202;-74
2022/07/11 00:07:17;;;;;;;15.85;15.18;;;;;;;-141.02;100.00;55844.97;5072749;28;20191;-74
2022/07/11 00:09:45;;;;;;;15.45;14.85;;;;;;;-141.02;100.00;55844.97;5072370;28;20209;-74
2022/07/11 00:12:13;;;;;;;15.25;14.65;;;;;;;-141.02;100.00;55844.97;5072689;28;20248;-74
2022/07/11 00:14:41;;;;;;;14.85;14.25;;;;;;;-141.02;100.00;55844.97;5072257;28;20735;-74
2022/07/11 00:17:09;;;;;;;15.10;14.50;;;;;;;-141.02;100.00;55844.97;5072361;28;20683;-73
2022/07/11 00:19:36;;;;;;;15.00;14.40;;;;;;;-141.02;100.00;55844.97;5072545;28;20254;-73
2022/07/11 00:22:04;;;;;;;14.48;13.95;;;;;;;-141.02;100.00;55844.97;5072192;28;20202;-73
2022/07/11 00:24:31;;;;;;;14.70;14.20;;;;;;;-141.02;100.00;55844.97;5072526;28;20198;-73
2022/07/11 00:27:00;;;;;;;14.93;14.32;;;;;;;-141.02;100.00;55844.97;5072450;28;20191;-73
2022/07/11 00:29:29;;;;;;;15.13;14.52;;;;;;;-141.02;100.00;55844.97;5072426;28;20201;-73
2022/07/11 00:31:56;;;;;;;15.27;14.68;;;;;;;-141.02;100.00;55844.97;5072481;28;20195;-73
2022/07/11 00:34:23;;;;;;;15.20;14.60;;;;;;;-141.02;100.00;55844.97;5072858;28;20317;-73
2022/07/11 00:36:50;;;;;;;15.85;15.25;;;;;;;-141.02;100.00;55844.97;5072071;28;20194;-73
2022/07/11 00:39:17;;;;;;;15.93;15.32;;;;;;;-141.02;100.00;55844.97;5073149;28;20653;-73
2022/07/11 00:41:44;;;;;;;15.90;15.30;;;;;;;-141.02;100.00;55844.97;5072020;28;20194;-74
2022/07/11 00:44:13;;;;;;;15.45;14.85;;;;;;;-141.02;100.00;55844.97;5071924;28;20191;-74
2022/07/11 00:46:40;;;;;;;16.20;15.50;;;;;;;-141.02;100.00;55844.97;5071695;28;20252;-74
2022/07/11 00:49:07;;;;;;;16.67;15.98;;;;;;;-141.02;100.00;55844.97;5072238;28;20260;-74
2022/07/11 00:51:35;;;;;;;15.80;15.20;;;;;;;-141.02;100.00;55844.97;5071860;28;20661;-74
2022/07/11 00:54:02;;;;;;;16.00;15.35;;;;;;;-141.02;100.00;55844.97;5071796;28;20234;-74
2022/07/11 00:56:31;;;;;;;15.98;15.38;;;;;;;-141.02;100.00;55844.97;5071577;28;20279;-73
2022/07/11 00:58:59;;;;;;;16.10;15.50;;;;;;;-141.02;100.00;55844.97;5072118;28;20194;-73
2022/07/11 01:01:28;;;;;;;16.25;15.60;;;;;;;-141.02;100.00;55844.97;5072097;28;20201;-73
2022/07/11 01:03:55;;;;;;;15.05;14.55;;;;;;;-141.02;100.00;55844.97;5072025;28;20557;-73
2022/07/11 01:06:22;;;;;;;15.70;15.10;;;;;;;-141.02;100.00;55844.97;5072085;28;20652;-73
2022/07/11 01:08:49;;;;;;;14.00;13.50;;;;;;;-141.02;100.00;55844.97;5071697;28;20665;-74
2022/07/11 01:11:18;;;;;;;13.73;13.23;;;;;;;-141.02;100.00;55844.97;5072539;28;20195;-73
2022/07/11 01:13:46;;;;;;;14.00;13.50;;;;;;;-141.02;100.00;55844.97;5071965;28;20226;-74
2022/07/11 01:16:15;;;;;;;13.55;13.05;;;;;;;-141.02;100.00;55844.97;5071633;28;20255;-73
2022/07/11 01:18:45;;;;;;;14.18;13.68;;;;;;;-141.02;100.00;55844.97;5071939;28;20272;-74
2022/07/11 01:21:21;;;;;;;13.70;13.20;;;;;;;-141.02;100.00;55844.97;5072118;28;20191;-74
2022/07/11 01:23:51;;;;;;;12.98;12.57;;;;;;;-141.02;100.00;55844.97;5071657;28;20190;-74
2022/07/11 01:26:20;;;;;;;12.90;12.50;;;;;;;-141.02;100.00;55844.97;5071587;28;20194;-74
2022/07/11 01:28:47;;;;;;;13.15;12.75;;;;;;;-141.02;100.00;55844.97;5071562;28;20577;-74
2022/07/11 01:31:14;;;;;;;12.30;11.90;;;;;;;-141.02;100.00;55844.97;5071791;28;20198;-74
2022/07/11 01:33:42;;;;;;;12.10;11.70;;;;;;;-141.02;100.00;55844.97;5071433;28;20700;-74
2022/07/11 01:36:10;;;;;;;12.63;12.23;;;;;;;-141.02;100.00;55844.97;5071434;28;20199;-74
2022/07/11 01:38:37;;;;;;;12.30;11.90;;;;;;;-141.02;100.00;55844.97;5071415;28;20202;-73
2022/07/11 01:41:06;;;;;;;12.20;11.80;;;;;;;-141.02;100.00;55844.97;5071470;28;20293;-73
2022/07/11 01:43:33;;;;;;;11.82;11.43;;;;;;;-141.02;100.00;55844.97;5071374;28;20194;-73
2022/07/11 01:46:01;;;;;;;11.60;11.20;;;;;;;-141.02;100.00;55844.97;5071399;28;20252;-74
2022/07/11 01:48:28;;;;;;;12.20;11.80;;;;;;;-141.02;100.00;55844.97;5071655;28;20195;-73
2022/07/11 01:50:55;;;;;;;12.80;12.40;;;;;;;-141.02;100.00;55844.97;5071680;28;20250;-73
2022/07/11 01:53:22;;;;;;;12.30;11.90;;;;;;;-141.02;100.00;55844.97;5071553;28;20194;-73
2022/07/11 01:55:49;;;;;;;12.88;12.48;;;;;;;-141.02;100.00;55844.97;5071292;28;20234;-73
2022/07/11 01:58:18;;;;;;;12.80;12.40;;;;;;;-141.02;100.00;55844.97;5071606;28;20293;-73
2022/07/11 02:00:45;;;;;;;13.38;12.93;;;;;;;-141.02;100.00;55844.97;5074363;28;20225;-73
2022/07/11 02:03:12;;;;;;;14.38;13.88;;;;;;;-141.02;100.00;55844.97;5075143;28;20710;-73
2022/07/11 02:05:40;;;;;;;14.40;13.90;;;;;;;-141.02;100.00;55844.97;5075072;28;20228;-73
2022/07/11 02:08:14;;;;;;;14.25;13.75;;;;;;;-141.02;100.00;55844.97;5074739;28;20194;-73
2022/07/11 02:10:43;;;;;;;15.30;14.75;;;;;;;-141.02;100.00;55844.97;5075041;28;20247;-74
2022/07/11 02:13:12;;;;;;;15.75;15.15;;;;;;;-141.02;100.00;55844.97;5074987;28;20199;-73
2022/07/11 02:15:41;;;;;;;14.77;14.27;;;;;;;-141.02;100.00;55844.97;5074590;28;20315;-74
2022/07/11 02:18:09;;;;;;;15.63;15.02;;;;;;;-141.02;100.00;55844.97;5074603;28;20697;-74
2022/07/11 02:20:36;;;;;;;16.13;15.52;;;;;;;-141.02;100.00;55844.97;5074801;28;20194;-75
2022/07/11 02:23:04;;;;;;;15.40;14.80;;;;;;;-141.02;100.00;55844.97;5074450;28;20210;-75
2022/07/11 02:25:32;;;;;;;15.80;15.20;;;;;;;-141.02;100.00;55844.97;5074745;28;20293;-74
2022/07/11 02:27:59;;;;;;;14.60;14.10;;;;;;;-141.02;100.00;55844.97;5074653;28;20199;-74
2022/07/11 02:30:27;;;;;;;14.88;14.38;;;;;;;-141.02;100.00;55844.97;5074729;28;20198;-74
2022/07/11 02:32:56;;;;;;;14.55;14.05;;;;;;;-141.02;100.00;55844.97;5074611;28;20201;-74
2022/07/11 02:35:23;;;;;;;14.27;13.77;;;;;;;-141.02;100.00;55844.97;5074171;28;20276;-75
2022/07/11 02:37:50;;;;;;;14.23;13.73;;;;;;;-141.02;100.00;55844.97;5074486;28;20198;-74
2022/07/11 02:40:17;;;;;;;14.48;13.90;;;;;;;-141.02;100.00;55844.97;5074126;28;20244;-74
2022/07/11 02:42:44;;;;;;;14.30;13.80;;;;;;;-141.02;100.00;55844.97;5074134;28;20308;-75
2022/07/11 02:45:12;;;;;;;14.60;14.10;;;;;;;-141.02;100.00;55844.97;5074067;28;20205;-75
2022/07/11 02:47:39;;;;;;;14.07;13.57;;;;;;;-141.02;100.00;55844.97;5074354;28;20222;-75
2022/07/11 02:50:11;;;;;;;14.50;14.00;;;;;;;-141.02;100.00;55844.97;5074339;28;20620;-75
2022/07/11 02:52:38;;;;;;;14.05;13.55;;;;;;;-141.02;100.00;55844.97;5074282;28;20252;-76
2022/07/11 02:55:07;;;;;;;14.27;13.77;;;;;;;-141.02;100.00;55844.97;5074131;28;20230;-75
2022/07/11 02:57:35;;;;;;;14.80;14.20;;;;;;;-141.02;100.00;55844.97;5073620;28;20325;-76
2022/07/11 03:00:03;;;;;;;15.02;14.43;;;;;;;-141.02;100.00;55844.97;5074089;28;20203;-75
2022/07/11 03:02:30;;;;;;;15.07;14.48;;;;;;;-141.02;100.00;55844.97;5074036;28;20273;-76
2022/07/11 03:04:58;;;;;;;15.52;14.85;;;;;;;-141.02;100.00;55844.97;5073712;28;20248;-77
2022/07/11 03:07:27;;;;;;;15.75;15.05;;;;;;;-141.02;100.00;55844.97;5073653;28;20201;-74
2022/07/11 03:09:55;;;;;;;15.27;14.68;;;;;;;-141.02;100.00;55844.97;5073383;28;20208;-74
2022/07/11 03:12:22;;;;;;;16.08;15.38;;;;;;;-141.02;100.00;55844.97;5073817;28;20201;-74
2022/07/11 03:14:49;;;;;;;16.20;15.50;;;;;;;-141.02;100.00;55844.97;5073626;28;20226;-74
2022/07/11 03:17:16;;;;;;;15.88;15.18;;;;;;;-141.02;100.00;55844.97;5073389;28;20327;-75
2022/07/11 03:19:43;;;;;;;16.20;15.50;;;;;;;-141.02;100.00;55844.97;5073672;28;20248;-75
2022/07/11 03:22:10;;;;;;;16.92;16.13;;;;;;;-141.02;100.00;55844.97;5073617;28;20198;-75
2022/07/11 03:24:41;;;;;;;17.27;16.48;;;;;;;-141.02;100.00;55844.97;5073272;28;20281;-74
2022/07/11 03:27:08;;;;;;;17.50;16.70;;;;;;;-141.02;100.00;55844.97;5073236;28;20567;-74
2022/07/11 03:29:36;;;;;;;17.30;16.50;;;;;;;-141.02;100.00;55844.97;5073444;28;20251;-74
2022/07/11 03:32:04;;;;;;;17.38;16.58;;;;;;;-141.02;100.00;55844.97;5073369;28;20202;-74
2022/07/11 03:34:31;;;;;;;17.08;16.27;;;;;;;-141.02;100.00;55844.97;5073351;28;20557;-74
2022/07/11 03:36:58;;;;;;;16.52;15.82;;;;;;;-141.02;100.00;55844.97;5073061;28;20190;-74
2022/07/11 03:39:25;;;;;;;15.43;14.82;;;;;;;-141.02;100.00;55844.97;5072957;28;20649;-74
2022/07/11 03:41:54;;;;;;;15.93;15.23;;;;;;;-141.02;100.00;55844.97;5073260;28;20767;-74
2022/07/11 03:44:21;;;;;;;17.08;16.27;;;;;;;-141.02;100.00;55844.97;5072861;28;20653;-74
2022/07/11 03:46:48;;;;;;;17.85;17.05;;;;;;;-141.02;100.00;55844.97;5073166;28;20195;-73
2022/07/11 03:49:15;;;;;;;18.95;18.10;;;;;;;-141.02;100.00;55844.97;5073111;28;20273;-74
2022/07/11 03:51:43;;;;;;;19.42;18.52;;;;;;;-141.02;100.00;55844.97;5073063;28;20198;-73
2022/07/11 03:54:10;;;;;;;18.35;17.55;;;;;;;-141.02;100.00;55844.97;5072999;28;20226;-74
2022/07/11 03:56:37;;;;;;;18.80;18.00;;;;;;;-141.02;100.00;55844.97;5072484;28;20295;-74
2022/07/11 03:59:06;;;;;;;19.80;18.90;;;;;;;-141.02;100.00;55844.97;5072613;28;20244;-74
2022/07/11 04:01:33;;;;;;;19.23;18.33;;;;;;;-141.02;100.00;55844.97;5072520;28;20194;-74
2022/07/11 04:04:00;;;;;;;19.77;18.77;;;;;;;-141.02;100.00;55844.97;5072831;28;20252;-74
2022/07/11 04:06:27;;;;;;;19.17;18.27;;;;;;;-141.02;100.00;55844.97;5072832;28;20232;-74
2022/07/11 04:08:54;;;;;;;19.05;18.15;;;;;;;-141.02;100.00;55844.97;5072406;28;20190;-74
2022/07/11 04:11:21;;;;;;;19.45;18.55;;;;;;;-141.02;100.00;55844.97;5072430;28;20213;-75
2022/07/11 04:13:48;;;;;;;19.40;18.40;;;;;;;-141.02;100.00;55844.97;5072685;28;20220;-74
2022/07/11 04:16:17;;;;;;;19.27;18.27;;;;;;;-141.02;100.00;55844.97;5072321;28;20345;-74
2022/07/11 04:18:44;;;;;;;18.65;17.77;;;;;;;-141.02;100.00;55844.97;5072631;28;20273;-74
2022/07/11 04:21:11;;;;;;;18.05;17.25;;;;;;;-141.02;100.00;55844.97;5072213;28;20615;-74
2022/07/11 04:23:38;;;;;;;17.98;17.17;;;;;;;-141.02;100.00;55844.97;5072048;28;20198;-74
2022/07/11 04:26:05;;;;;;;19.02;18.13;;;;;;;-141.02;100.00;55844.97;5072449;28;20618;-74
2022/07/11 04:28:33;;;;;;;18.30;17.50;;;;;;;-141.02;100.00;55844.97;5072476;28;20210;-73
2022/07/11 04:31:00;;;;;;;17.92;17.13;;;;;;;-141.02;100.00;55844.97;5072116;28;20234;-74
2022/07/11 04:33:28;;;;;;;18.50;17.60;;;;;;;-141.02;100.00;55844.97;5072403;28;20537;-74
2022/07/11 04:35:56;;;;;;;18.50;17.60;;;;;;;-141.02;100.00;55844.97;5071973;28;20233;-74
2022/07/11 04:38:23;;;;;;;18.25;17.35;;;;;;;-141.02;100.00;55844.97;5072275;28;20548;-74
2022/07/11 04:40:51;;;;;;;17.77;16.98;;;;;;;-141.02;100.00;55844.97;5072275;28;20194;-74
2022/07/11 04:43:18;;;;;;;18.05;17.25;;;;;;;-141.02;100.00;55844.97;5072277;28;20233;-74
2022/07/11 04:45:46;;;;;;;18.05;17.25;;;;;;;-141.02;100.00;55844.97;5072285;28;20198;-74
2022/07/11 04:48:13;;;;;;;18.17;17.38;;;;;;;-141.02;100.00;55844.97;5071941;28;20661;-75
2022/07/11 04:50:44;;;;;;;18.48;17.58;;;;;;;-141.02;100.00;55844.97;5071939;28;20240;-75
2022/07/11 04:53:11;;;;;;;18.70;17.80;;;;;;;-141.02;100.00;55844.97;5072239;28;20186;-74
2022/07/11 04:55:41;;;;;;;18.90;18.00;;;;;;;-141.02;100.00;55844.97;5071838;28;20248;-75
2022/07/11 04:58:08;;;;;;;18.20;17.40;;;;;;;-141.02;100.00;55844.97;5072146;28;20542;-75
2022/07/11 05:00:35;;;;;;;18.23;17.42;;;;;;;-141.02;100.00;55844.97;5071837;28;20190;-75
2022/07/11 05:03:03;;;;;;;18.20;17.40;;;;;;;-141.02;100.00;55844.97;5072059;28;20238;-74
2022/07/11 05:05:30;;;;;;;18.35;17.45;;;;;;;-141.02;100.00;55844.97;5071842;28;20682;-74
2022/07/11 05:07:58;;;;;;;17.65;16.85;;;;;;;-141.02;100.00;55844.97;5071758;28;20195;-74
2022/07/11 05:10:25;;;;;;;17.27;16.48;;;;;;;-141.02;100.00;55844.97;5072051;28;20194;-74
2022/07/11 05:12:52;;;;;;;17.50;16.70;;;;;;;-141.02;100.00;55844.97;5071987;28;20278;-75
2022/07/11 05:15:20;;;;;;;17.70;16.90;;;;;;;-141.02;100.00;55844.97;5071597;28;20694;-72
2022/07/11 05:17:47;;;;;;;16.73;16.02;;;;;;;-141.02;100.00;55844.97;5071591;28;20656;-74
2022/07/11 05:20:14;;;;;;;17.60;16.80;;;;;;;-141.02;100.00;55844.97;5071946;28;20252;-75
2022/07/11 05:22:41;;;;;;;17.45;16.60;;;;;;;-141.02;100.00;55844.97;5071633;28;20234;-79
2022/07/11 05:25:10;;;;;;;16.88;16.08;;;;;;;-141.02;100.00;55844.97;5071860;28;20260;-82
2022/07/11 05:27:37;;;;;;;16.65;15.95;;;;;;;-141.02;100.00;55844.97;5071869;28;20190;-75
2022/07/11 05:30:05;;;;;;;17.23;16.42;;;;;;;-141.02;100.00;55844.97;5071795;28;20286;-77
2022/07/11 05:32:32;;;;;;;16.85;16.15;;;;;;;-141.02;100.00;55844.97;5071514;28;20199;-72
2022/07/11 05:35:01;;;;;;;17.52;16.58;;;;;;;-141.02;100.00;55844.97;5073780;28;20276;-73
2022/07/11 05:37:29;;;;;;;17.13;16.33;;;;;;;-141.02;100.00;55844.97;5075385;28;20190;-72
2022/07/11 05:39:56;;;;;;;17.63;16.83;;;;;;;-141.02;100.00;55844.97;5075303;28;20195;-73
2022/07/11 05:42:25;;;;;;;17.10;16.30;;;;;;;-141.02;100.00;55844.97;5075530;28;20228;-76
2022/07/11 05:44:52;;;;;;;17.55;16.75;;;;;;;-141.02;100.00;55844.97;5075551;28;20209;-78
2022/07/11 05:47:19;;;;;;;17.55;16.70;;;;;;;-141.02;100.00;55844.97;5075173;28;20203;-74
2022/07/11 05:49:46;;;;;;;17.98;17.08;;;;;;;-141.02;100.00;55844.97;5075091;28;20190;-75
2022/07/11 05:52:13;;;;;;;17.67;16.77;;;;;;;-141.02;100.00;55844.97;5075060;28;20285;-78
2022/07/11 05:54:40;;;;;;;18.05;17.15;;;;;;;-141.02;100.00;55844.97;5074921;28;20209;-78
2022/07/11 05:57:07;;;;;;;18.05;17.15;;;;;;;-141.02;100.00;55844.97;5074876;28;20684;-78
2022/07/11 05:59:37;;;;;;;18.83;17.83;;;;;;;-141.02;100.00;55844.97;5074917;28;20198;-77
2022/07/11 06:02:05;;;;;;;18.65;17.65;;;;;;;-141.02;100.00;55844.97;5075200;28;20230;-77
2022/07/11 06:04:33;;;;;;;18.58;17.58;;;;;;;-141.02;100.00;55844.97;5075116;28;20203;-75
2022/07/11 06:07:00;;;;;;;18.77;17.77;;;;;;;-141.02;100.00;55844.97;5074796;28;20207;-77
2022/07/11 06:09:26;;;;;;;18.42;17.42;;;;;;;-141.02;100.00;55844.97;5075098;28;20194;-77
2022/07/11 06:11:53;;;;;;;18.55;17.55;;;;;;;-141.02;100.00;55844.97;5075039;28;20202;-78
2022/07/11 06:14:21;;;;;;;19.27;18.27;;;;;;;-141.02;100.00;55844.97;5074708;28;20248;-81
2022/07/11 06:16:50;;;;;;;18.63;17.63;;;;;;;-141.02;100.00;55844.97;5074536;28;20226;-77
2022/07/11 06:19:17;;;;;;;18.17;17.17;;;;;;;-141.02;100.00;55844.97;5074913;28;20194;-78
2022/07/11 06:21:44;;;;;;;18.85;17.85;;;;;;;-141.02;100.00;55844.97;5074865;28;20683;-79
2022/07/11 06:24:11;;;;;;;18.48;17.48;;;;;;;-141.02;100.00;55844.97;5074837;28;20199;-80
2022/07/11 06:26:38;;;;;;;18.67;17.67;;;;;;;-141.02;100.00;55844.97;5074472;28;20194;-78
2022/07/11 06:29:05;;;;;;;18.90;17.85;;;;;;;-141.02;100.00;55844.97;5074689;28;20260;-76
2022/07/11 06:31:32;;;;;;;18.75;17.65;;;;;;;-141.02;100.00;55844.97;5074706;28;20198;-80
2022/07/11 06:34:01;;;;;;;18.92;17.83;;;;;;;-141.02;100.00;55844.97;5074605;28;20198;-79
2022/07/11 06:36:28;;;;;;;18.17;17.17;;;;;;;-141.02;100.00;55844.97;5074248;28;20279;-78
2022/07/11 06:38:55;;;;;;;18.00;17.00;;;;;;;-141.02;100.00;55844.97;5074305;28;20194;-78
2022/07/11 06:41:22;;;;;;;18.77;17.67;;;;;;;-141.02;100.00;55844.97;5074466;28;20190;-78
2022/07/11 06:43:50;;;;;;;19.35;18.25;;;;;;;-141.02;100.00;55844.97;5074179;28;20190;-78
2022/07/11 06:46:18;;;;;;;19.20;18.10;;;;;;;-141.02;100.00;55844.97;5073531;28;20683;-81
2022/07/11 06:48:45;;;;;;;18.60;17.50;;;;;;;-141.02;100.00;55844.97;5074367;28;20199;-79
2022/07/11 06:51:14;;;;;;;19.08;17.98;;;;;;;-141.02;100.00;55844.97;5074032;28;20661;-77
2022/07/11 06:53:41;;;;;;;19.67;18.38;;;;;;;-141.02;100.00;55844.97;5074302;28;20199;-77
2022/07/11 06:56:08;;;;;;;19.55;18.35;;;;;;;-141.02;100.00;55844.97;5073690;28;20329;-76
2022/07/11 06:58:35;;;;;;;19.65;18.45;;;;;;;-141.02;100.00;55844.97;5074117;28;20199;-75
2022/07/11 07:01:05;;;;;;;19.75;18.45;;;;;;;-141.02;100.00;55844.97;5073847;28;20296;-77
2022/07/11 07:03:33;;;;;;;19.67;18.48;;;;;;;-141.02;100.00;55844.97;5073706;28;20281;-77
2022/07/11 07:06:00;;;;;;;20.13;18.83;;;;;;;-141.02;100.00;55844.97;5074072;28;20642;-78
2022/07/11 07:08:30;;;;;;;19.20;18.00;;;;;;;-141.02;100.00;55844.97;5073765;28;20234;-78
2022/07/11 07:10:58;;;;;;;19.13;17.92;;;;;;;-141.02;100.00;55844.97;5073660;28;20708;-81
2022/07/11 07:13:29;;;;;;;19.70;18.50;;;;;;;-141.02;100.00;55844.97;5073621;28;20239;-79
2022/07/11 07:15:57;;;;;;;19.98;18.67;;;;;;;-141.02;100.00;55844.97;5073516;28;20210;-77
2022/07/11 07:18:25;;;;;;;20.15;18.85;;;;;;;-141.02;100.00;55844.97;5073856;28;20285;-75
2022/07/11 07:20:52;;;;;;;20.67;19.38;;;;;;;-141.02;100.00;55844.97;5073770;28;20190;-76
2022/07/11 07:23:19;;;;;;;20.00;18.70;;;;;;;-141.02;100.00;55844.97;5073658;28;20190;-77
2022/07/11 07:25:48;;;;;;;19.95;18.65;;;;;;;-141.02;100.00;55844.97;5073630;28;20237;-73
2022/07/11 07:28:15;;;;;;;19.83;18.52;;;;;;;-141.02;100.00;55844.97;5073539;28;20226;-76
2022/07/11 07:30:43;;;;;;;20.23;18.92;;;;;;;-141.02;100.00;55844.97;5073283;28;20194;-77
2022/07/11 07:33:12;;;;;;;21.25;19.90;;;;;;;-141.02;100.00;55844.97;5073129;28;20230;-77
2022/07/11 07:35:39;;;;;;;20.15;18.85;;;;;;;-141.02;100.00;55844.97;5074243;28;20633;-79
2022/07/11 07:38:06;;;;;;;20.15;18.85;;;;;;;-141.02;100.00;55844.97;5073029;28;20656;-73
2022/07/11 07:40:33;;;;;;;19.60;18.40;;;;;;;-141.02;100.00;55844.97;5073329;28;20661;-79
2022/07/11 07:43:02;;;;;;;19.95;18.65;;;;;;;-141.02;100.00;55844.97;5073194;28;20698;-79
2022/07/11 07:45:29;;;;;;;20.40;19.00;;;;;;;-141.02;100.00;55844.97;5073390;28;20277;-82
2022/07/11 07:47:56;;;;;;;20.23;18.83;;;;;;;-141.02;100.00;55844.97;5073182;28;20225;-81
2022/07/11 07:50:24;;;;;;;20.08;18.70;;;;;;;-141.02;100.00;55844.97;5072827;28;20194;-79
2022/07/11 07:52:51;;;;;;;19.88;18.58;;;;;;;-141.02;100.00;55844.97;5072847;28;20660;-78
2022/07/11 07:55:18;;;;;;;20.05;18.65;;;;;;;-141.02;100.00;55844.97;5072743;28;20198;-79
2022/07/11 07:57:45;;;;;;;20.25;18.85;;;;;;;-141.02;100.00;55844.97;5072287;28;20630;-78
2022/07/11 08:03:05;;;;;;;20.20;18.80;;;;;;;-141.02;100.00;55844.97;5072677;28;20644;-76
2022/07/11 08:05:32;;;;;;;20.48;19.08;;;;;;;-141.02;100.00;55844.97;5072558;28;20244;-80
2022/07/11 08:08:00;;;;;;;20.65;19.25;;;;;;;-141.02;100.00;55844.97;5072596;28;20195;-76
2022/07/11 08:10:27;;;;;;;20.60;19.20;;;;;;;-141.02;100.00;55844.97;5072786;28;20198;-78
2022/07/11 08:12:54;;;;;;;21.13;19.63;;;;;;;-141.02;100.00;55844.97;5072418;28;20202;-76
2022/07/11 08:15:23;;;;;;;20.83;19.42;;;;;;;-141.02;100.00;55844.97;5072312;28;20198;-78
2022/07/11 08:17:50;;;;;;;20.77;19.38;;;;;;;-141.02;100.00;55844.97;5072291;28;20197;-77
2022/07/11 08:20:17;;;;;;;20.88;19.38;;;;;;;-141.02;100.00;55844.97;5072401;28;20734;-80
2022/07/11 08:22:44;;;;;;;21.83;20.20;;;;;;;-141.02;100.00;55844.97;5072629;28;20202;-72
2022/07/11 08:25:11;;;;;;;21.58;20.08;;;;;;;-141.02;100.00;55844.97;5072559;28;20197;-80
2022/07/11 08:27:39;;;;;;;21.75;20.25;;;;;;;-141.02;100.00;55844.97;5072167;28;20618;-80
2022/07/11 08:30:08;;;;;;;21.75;20.25;;;;;;;-141.02;100.00;55844.97;5072174;28;20190;-79
2022/07/11 08:32:39;;;;;;;21.38;19.88;;;;;;;-141.02;100.00;55844.97;5072173;28;20214;-77
2022/07/11 08:35:07;;;;;;;21.75;20.25;;;;;;;-141.02;100.00;55844.97;5054565;28;20199;-81
2022/07/11 08:37:36;;;;;;;21.85;20.35;;;;;;;-141.02;100.00;55844.97;5072323;28;20309;-75
2022/07/11 08:40:03;;;;;;;21.77;20.27;;;;;;;-141.02;100.00;55844.97;5071981;28;20199;-77
2022/07/11 08:42:31;;;;;;;21.88;20.38;;;;;;;-141.02;100.00;55844.97;5072031;28;20758;-78
2022/07/11 08:44:59;;;;;;;21.95;20.45;;;;;;;-141.02;100.00;55844.97;5072301;28;20299;-74
2022/07/11 08:47:26;;;;;;;21.00;19.50;;;;;;;-141.02;100.00;55844.97;5072256;28;20194;-77
2022/07/11 08:49:55;;;;;;;21.40;20.00;;;;;;;-141.02;100.00;55844.97;5071942;28;20652;-77
2022/07/11 08:52:23;;;;;;;21.00;19.60;;;;;;;-141.02;100.00;55844.97;5072245;28;20275;-81
2022/07/11 08:54:52;;;;;;;21.90;20.50;;;;;;;-141.02;100.00;55844.97;5072186;28;20225;-79
2022/07/11 08:57:20;;;;;;;21.15;19.65;;;;;;;-141.02;100.00;55844.97;5071661;28;20269;-76
2022/07/11 08:59:48;;;;;;;21.15;19.70;;;;;;;-141.02;100.00;55844.97;5072200;28;20221;-76
2022/07/11 09:02:17;;;;;;;21.58;20.08;;;;;;;-141.02;100.00;55844.97;5072105;28;20199;-79
2022/07/11 09:04:44;;;;;;;21.50;20.00;;;;;;;-141.02;100.00;55844.97;5072890;28;20630;-76
2022/07/11 09:07:13;;;;;;;21.38;19.88;;;;;;;-141.02;100.00;55844.97;5071823;28;20282;-75
2022/07/11 09:09:41;;;;;;;21.27;19.77;;;;;;;-141.02;100.00;55844.97;5075110;28;20661;-80
2022/07/11 09:12:12;;;;;;;21.35;19.85;;;;;;;-141.02;100.00;55844.97;5075804;28;20194;-75
2022/07/11 09:14:40;;;;;;;21.35;19.85;;;;;;;-141.02;100.00;55844.97;5076161;28;20188;-75
2022/07/11 09:17:08;;;;;;;21.58;20.08;;;;;;;-141.02;100.00;55844.97;5076036;28;20275;-75
2022/07/11 09:19:39;;;;;;;21.33;19.83;;;;;;;-141.02;100.00;55844.97;5076038;28;20588;-77
2022/07/11 09:27:48;;;;;;;21.27;19.77;;;;;;;-141.02;100.00;55844.97;5076346;28;20193;-75
2022/07/11 09:30:22;;;;;;;21.42;19.92;;;;;;;-141.02;100.00;55844.97;5075815;28;20271;-72
2022/07/11 09:32:57;;;;;;;20.75;19.35;;;;;;;-141.02;100.00;55844.97;5075519;28;20278;-72
2022/07/11 09:35:26;;;;;;;21.70;20.20;;;;;;;-141.02;100.00;55844.97;5075840;28;20291;-77
2022/07/11 09:37:53;;;;;;;21.65;20.15;;;;;;;-141.02;100.00;55844.97;5075569;28;20279;-76
2022/07/11 09:40:23;;;;;;;21.80;20.30;;;;;;;-141.02;100.00;55844.97;5075350;28;20201;-84
2022/07/11 09:42:52;;;;;;;21.40;19.92;;;;;;;-141.02;100.00;55844.97;5075371;28;20194;-78
2022/07/11 09:45:20;;;;;;;20.92;19.52;;;;;;;-141.02;100.00;55844.97;5075222;28;20289;-77
2022/07/11 09:47:48;;;;;;;21.10;19.70;;;;;;;-141.02;100.00;55844.97;5075454;28;20190;-76
2022/07/11 09:50:19;;;;;;;21.63;20.13;;;;;;;-141.02;100.00;55844.97;5075116;28;20261;-74
2022/07/11 09:53:07;;;;;;;21.23;19.83;;;;;;;-141.02;100.00;55844.97;5075095;28;20199;-76
2022/07/11 09:55:38;;;;;;;21.13;19.73;;;;;;;-141.02;100.00;55844.97;5075104;28;20227;-79
2022/07/11 09:58:06;;;;;;;21.08;19.67;;;;;;;-141.02;100.00;55844.97;5075219;28;20234;-76
2022/07/11 10:00:33;;;;;;;21.23;19.83;;;;;;;-141.02;100.00;55844.97;5074872;28;20202;-77
2022/07/11 10:03:01;;;;;;;21.58;20.08;;;;;;;-141.02;100.00;55844.97;5074916;28;20198;-74
2022/07/11 10:05:28;;;;;;;20.90;19.50;;;;;;;-141.02;100.00;55844.97;5075172;28;20194;-74
2022/07/11 10:07:57;;;;;;;21.58;20.08;;;;;;;-141.02;100.00;55844.97;5075106;28;20202;-77
2022/07/11 10:10:24;;;;;;;21.30;19.80;;;;;;;-141.02;100.00;55844.97;5075091;28;20201;-72
2022/07/11 10:12:54;;;;;;;20.50;19.10;;;;;;;-141.02;100.00;55844.97;5074701;28;20200;-76
2022/07/11 10:15:23;;;;;;;21.08;19.67;;;;;;;-141.02;100.00;55844.97;5074711;28;20281;-79
2022/07/11 10:18:00;;;;;;;20.80;19.30;;;;;;;-141.02;100.00;55844.97;5074824;28;20226;-76
2022/07/11 10:20:34;;;;;;;20.98;19.48;;;;;;;-141.02;100.00;55844.97;5073640;28;20190;-82
2022/07/11 10:23:15;;;;;;;20.80;19.40;;;;;;;-141.02;100.00;55844.97;5074901;28;20191;-75
2022/07/11 10:25:49;;;;;;;21.08;19.58;;;;;;;-141.02;100.00;55844.97;5074801;28;20194;-78
2022/07/11 10:28:26;;;;;;;21.23;19.73;;;;;;;-141.02;100.00;55844.97;5074524;28;20191;-79
2022/07/11 10:30:55;;;;;;;20.85;19.45;;;;;;;-141.02;100.00;55844.97;5074872;28;20251;-75
2022/07/11 10:33:23;;;;;;;21.15;19.65;;;;;;;-141.02;100.00;55844.97;5074819;28;20224;-75
2022/07/11 10:35:52;;;;;;;20.95;19.45;;;;;;;-141.02;100.00;55844.97;5074588;28;20198;-77
2022/07/11 10:38:20;;;;;;;20.80;19.38;;;;;;;-141.02;100.00;55844.97;5074198;28;20739;-74
2022/07/11 10:40:49;;;;;;;22.00;20.40;;;;;;;-141.02;100.00;55844.97;5074570;28;20199;-77
2022/07/11 10:43:35;;;;;;;21.63;20.13;;;;;;;-141.02;100.00;55844.97;5074181;28;20195;-74
2022/07/11 10:46:05;;;;;;;21.50;20.00;;;;;;;-141.02;100.00;55844.97;5074137;28;20286;-78
2022/07/11 10:48:34;;;;;;;20.85;19.35;;;;;;;-141.02;100.00;55844.97;5074728;28;20224;-73
2022/07/11 10:51:25;;;;;;;21.15;19.65;;;;;;;-141.02;100.00;55844.97;5074074;28;20195;-76
2022/07/11 10:53:53;;;;;;;21.17;19.67;;;;;;;-141.02;100.00;55844.97;5070691;28;20230;-72
2022/07/11 10:56:45;;;;;;;21.65;20.05;;;;;;;-141.02;100.00;55844.97;5073671;28;20230;-76
2022/07/11 10:59:16;;;;;;;22.20;20.60;;;;;;;-141.02;100.00;55844.97;5074280;28;20190;-74
2022/07/11 11:02:14;;;;;;;21.77;20.17;;;;;;;-141.02;100.00;55844.97;5073897;28;20187;-76
2022/07/11 11:04:49;;;;;;;21.75;20.15;;;;;;;-141.02;100.00;55844.97;5012166;28;20185;-76
2022/07/11 11:07:40;;;;;;;21.52;19.92;;;;;;;-141.02;100.00;55844.97;5063476;28;20641;-73
2022/07/11 11:10:52;;;;;;;21.83;20.23;;;;;;;-141.02;100.00;55844.97;5073674;28;20187;-77